LEBL

Barcelona/El Prat Airport

Airport
ICAO code
LEBL
IATA Code
BCN
Summary
ICAO Region
EUR
ICAO Territory
Location

El Prat de Llobregat, Catalonia

Serving
Barcelona
Elevation
13 ft
Coordinates
41° 17' 34" N , 2° 5' 10" E
KCC
Airport LOS
Parallel Runway Operation
Airport WX
Fog
Metar
Observation
LEBL 020200Z 33008KT 9999 FEW060 06/03 Q1017 NOSIG
Station
Barcelona / Aeropuerto
Date/Time
2022-12-02 02:00:00
Wind direction
330°
Wind speed
08 kts
Lowest cloud amount
few clouds
Temperature
6°C
Dew point
3°C
Humidity
81%
QNH
1017 hPa
Weather condition
n/a

International airport 6 nm south west of Barcelona.

Climatology

Dry-summer subtropical ”Mediterranean" climate (Köppen climate classification Csa) - characterized by hot, dry summers and mild winters. During the summer, subtropical high pressure cells dominate, making rainfall unlikely except for the occasional thunderstorm. In the winter, periodic storms bring rain (snow at higher elevations).

Runways

Designator Length Width Surface Rops
2/20 2540 45 ASP Yes/Yes
07R/25L 2660 60 ASP Yes/Yes
07L/25R 3552 45 ASP Yes/Yes

SKYbrary Partners:

Safety knowledge contributed by: